Overview Statistics Trail Chart Weather Telemetry Raw packets
 

This is the latest recevied weather packets stored in our database for station/object IZ7EXI-13. If no packets are shown the sender has not sent any weather packets the latest 10 day(s).

<< 16 17 18 19 20 21 22 >>
Time Temp. Humidity Pressure Rain* Wind** Luminosity Snow
1788349945 33.89° C 50% 1019.1 hPa - - - -
1788349077 33.33° C 47% 1019.1 hPa - - - -
1788349045 33.33° C 47% 1019.1 hPa - - - -
1788348182 34.44° C 45% 1019.2 hPa - - - -
1788348145 34.44° C 45% 1019.2 hPa - - - -
1788347275 33.33° C 44% 1019.1 hPa - - - -
1788347245 33.33° C 44% 1019.1 hPa - - - -
1788346371 32.78° C 49% 1019.3 hPa - - - -
1788346345 32.78° C 49% 1019.3 hPa - - - -
1788345444 33.33° C 50% 1019.4 hPa - - - -
1788344582 33.33° C 46% 1019.5 hPa - - - -
1788344544 33.33° C 46% 1019.5 hPa - - - -
1788343644 32.22° C 50% 1019.6 hPa - - - -
1788342744 32.22° C 52% 1019.6 hPa - - - -
1788341843 32.22° C 52% 1019.7 hPa - - - -
1788340943 31.67° C 55% 1019.8 hPa - - - -
1788340043 31.67° C 55% 1019.8 hPa - - - -
1788339143 32.78° C 47% 1019.8 hPa - - - -
1788338242 32.22° C 47% 1019.8 hPa - - - -
1788337342 31.67° C 49% 1019.8 hPa - - - -
1788336442 30.56° C 53% 1019.8 hPa - - - -
1788335573 30° C 56% 1019.8 hPa - - - -
1788335542 30° C 56% 1019.8 hPa - - - -
1788334676 29.44° C 58% 1019.8 hPa - - - -
1788334642 29.44° C 58% 1019.8 hPa - - - -

* Rain since midnight (hover to see other rain measurements)
** Current wind speed in m/s (hover to see current wind gust speed)